createdAt,value
2019-03-10T00:01:06.139Z,1.47
2019-03-10T00:02:14.426Z,5.03
2019-03-10T00:03:22.324Z,16.53
2019-03-10T00:04:30.318Z,9.43
2019-03-10T00:05:38.465Z,6.33
2019-03-10T00:06:46.608Z,5.57
2019-03-10T00:07:54.666Z,1.30
2019-03-10T00:09:04.691Z,4.10
2019-03-10T00:10:13.322Z,1.50
2019-03-10T00:11:21.372Z,9.27
2019-03-10T00:12:29.557Z,12.10
2019-03-10T00:13:37.567Z,1.70
2019-03-10T00:14:45.743Z,5.50
2019-03-10T00:15:53.896Z,2.30
2019-03-10T00:17:02.125Z,1.27
2019-03-10T00:18:10.816Z,0.93
2019-03-10T00:19:18.953Z,4.50
2019-03-10T00:20:27.054Z,9.53
2019-03-10T00:21:35.246Z,7.50
2019-03-10T00:22:43.246Z,1.40
2019-03-10T00:23:51.340Z,4.00
2019-03-10T00:24:59.537Z,4.40
2019-03-10T00:26:07.852Z,0.80
2019-03-10T00:27:16.037Z,1.40
2019-03-10T00:28:24.015Z,10.33
2019-03-10T00:29:32.588Z,14.17
2019-03-10T00:30:41.349Z,2.50
2019-03-10T00:31:49.299Z,6.30
2019-03-10T00:32:57.655Z,1.50
2019-03-10T00:34:06.173Z,5.33
2019-03-10T00:35:14.681Z,1.93
2019-03-10T00:36:24.401Z,10.37
2019-03-10T00:37:32.612Z,13.77
2019-03-10T00:38:51.051Z,1.50
2019-03-10T00:40:51.560Z,0.97
2019-03-10T00:42:32.667Z,1.47
2019-03-10T00:44:20.250Z,1.23
2019-03-10T00:46:24.611Z,26.20
2019-03-10T00:48:01.694Z,12.27
2019-03-10T00:49:47.021Z,1.20
2019-03-10T00:51:35.567Z,105.37
2019-03-10T00:53:02.611Z,216.77
2019-03-10T00:54:10.850Z,157.53
2019-03-10T00:55:19.161Z,123.93
2019-03-10T00:56:27.512Z,25.50
2019-03-10T00:57:35.773Z,139.27
2019-03-10T00:58:44.142Z,115.30
2019-03-10T00:59:52.734Z,125.87
2019-03-10T01:01:00.771Z,123.80
2019-03-10T01:02:09.228Z,170.57
2019-03-10T01:03:17.656Z,160.13
2019-03-10T01:04:25.737Z,161.83
2019-03-10T01:05:33.871Z,175.80
2019-03-10T01:06:42.259Z,154.40
2019-03-10T01:07:50.388Z,169.10
2019-03-10T01:08:59.110Z,146.17
2019-03-10T01:10:09.510Z,163.90
2019-03-10T01:11:18.214Z,159.73
2019-03-10T01:12:26.806Z,154.53
2019-03-10T01:13:35.004Z,168.30
2019-03-10T01:14:43.817Z,154.80
2019-03-10T01:15:52.647Z,128.60
2019-03-10T01:17:02.086Z,107.67
2019-03-10T01:19:06.307Z,113.93
2019-03-10T01:20:17.260Z,80.93
2019-03-10T01:21:27.361Z,151.30
2019-03-10T01:22:35.668Z,160.30
2019-03-10T01:23:43.770Z,138.17
2019-03-10T01:24:51.808Z,137.77
2019-03-10T01:26:00.687Z,136.17
2019-03-10T01:27:09.141Z,131.87
2019-03-10T01:28:17.612Z,113.13
2019-03-10T01:29:25.767Z,165.70
2019-03-10T01:30:38.286Z,183.53
2019-03-10T01:32:05.687Z,162.13
2019-03-10T01:33:23.606Z,161.67
2019-03-10T01:34:55.524Z,186.87
2019-03-10T01:36:04.141Z,147.63
2019-03-10T01:37:12.704Z,141.83
2019-03-10T01:38:20.985Z,143.50
2019-03-10T01:39:29.474Z,152.57
2019-03-10T01:40:37.663Z,172.30
2019-03-10T01:41:45.920Z,162.53
2019-03-10T01:42:54.464Z,164.30
2019-03-10T01:44:02.670Z,164.17
2019-03-10T01:45:13.566Z,159.77
2019-03-10T01:46:21.698Z,160.90
2019-03-10T01:47:29.697Z,177.37
2019-03-10T01:48:37.853Z,180.93
2019-03-10T01:49:46.012Z,167.87
2019-03-10T01:50:54.112Z,152.17
2019-03-10T01:52:02.312Z,161.10
2019-03-10T01:53:10.259Z,165.80
2019-03-10T01:54:18.709Z,156.00
2019-03-10T01:55:26.709Z,147.87
2019-03-10T01:56:34.704Z,143.97
2019-03-10T01:57:42.911Z,146.60
2019-03-10T01:58:51.302Z,2.80
2019-03-10T01:59:59.299Z,4.67
2019-03-10T02:01:07.588Z,1.97
2019-03-10T02:02:24.813Z,2.07
2019-03-10T02:03:25.259Z,3.07
2019-03-10T02:04:33.852Z,12.03
2019-03-10T02:05:42.210Z,182.53
2019-03-10T02:06:50.238Z,148.37
2019-03-10T02:07:58.644Z,145.80
2019-03-10T02:09:07.657Z,140.73
2019-03-10T02:10:16.034Z,113.03
2019-03-10T02:11:24.161Z,73.43
2019-03-10T02:12:32.339Z,135.90
2019-03-10T02:13:40.426Z,147.57
2019-03-10T02:14:48.351Z,159.13
2019-03-10T02:15:56.533Z,154.50
2019-03-10T02:17:04.937Z,146.97
2019-03-10T02:18:13.250Z,152.23
2019-03-10T02:19:21.265Z,126.40
2019-03-10T02:20:29.450Z,152.07
2019-03-10T02:21:37.545Z,133.13
2019-03-10T02:22:45.951Z,149.73
2019-03-10T02:23:54.290Z,158.60
2019-03-10T02:25:02.414Z,149.30
2019-03-10T02:26:10.497Z,143.90
2019-03-10T02:27:18.888Z,153.03
2019-03-10T02:28:26.903Z,161.63
2019-03-10T02:29:34.765Z,163.83
2019-03-10T02:30:42.787Z,168.83
2019-03-10T02:31:51.220Z,164.93
2019-03-10T02:32:59.210Z,137.93
2019-03-10T02:34:07.323Z,146.27
2019-03-10T02:35:15.915Z,120.53
2019-03-10T02:36:24.109Z,148.33
2019-03-10T02:37:32.541Z,166.33
2019-03-10T02:38:40.615Z,149.73
2019-03-10T02:39:48.710Z,113.50
2019-03-10T02:40:56.973Z,101.33
2019-03-10T02:42:05.283Z,58.70
2019-03-10T02:43:13.433Z,20.60
2019-03-10T02:44:21.808Z,1.40
2019-03-10T02:45:30.081Z,5.43
2019-03-10T02:46:38.243Z,7.90
2019-03-10T02:47:46.353Z,9.10
2019-03-10T02:48:54.253Z,1.53
2019-03-10T02:50:02.310Z,1.07
2019-03-10T02:51:10.897Z,2.23
2019-03-10T02:52:25.624Z,2.13
2019-03-10T02:53:33.583Z,10.33
2019-03-10T02:54:41.780Z,100.63
2019-03-10T02:55:49.970Z,115.27
2019-03-10T02:56:57.927Z,32.17
2019-03-10T02:58:05.795Z,116.17
2019-03-10T02:59:13.922Z,65.40
2019-03-10T03:00:22.028Z,80.17
2019-03-10T03:01:30.094Z,53.97
2019-03-10T03:02:38.099Z,17.80
2019-03-10T03:03:46.185Z,103.37
2019-03-10T03:04:54.127Z,13.13
2019-03-10T03:06:02.047Z,115.33
2019-03-10T03:07:10.320Z,48.53
2019-03-10T03:08:18.619Z,9.53
2019-03-10T03:09:26.661Z,2.60
2019-03-10T03:10:34.715Z,12.50
2019-03-10T03:11:43.423Z,32.90
2019-03-10T03:12:51.626Z,89.50
2019-03-10T03:13:59.869Z,128.70
2019-03-10T03:15:10.793Z,117.03
2019-03-10T03:16:19.426Z,153.30
2019-03-10T03:17:27.736Z,144.23
2019-03-10T03:18:35.985Z,161.53
2019-03-10T03:19:44.111Z,136.37
2019-03-10T03:20:51.980Z,153.27
2019-03-10T03:22:00.030Z,158.43
2019-03-10T03:23:08.300Z,138.07
2019-03-10T03:24:16.539Z,155.17
2019-03-10T03:25:25.075Z,136.73
2019-03-10T03:26:33.084Z,155.73
2019-03-10T03:27:41.437Z,157.83
2019-03-10T03:28:49.702Z,155.73
2019-03-10T03:29:57.693Z,146.17
2019-03-10T03:31:05.823Z,128.73
2019-03-10T03:32:13.971Z,160.73
2019-03-10T03:33:22.438Z,158.90
2019-03-10T03:34:30.417Z,140.10
2019-03-10T03:35:51.458Z,179.40
2019-03-10T03:36:59.654Z,128.00
2019-03-10T03:38:07.645Z,104.67
2019-03-10T03:39:26.709Z,132.10
2019-03-10T03:40:34.950Z,150.20
2019-03-10T03:41:43.128Z,166.73
2019-03-10T03:42:51.201Z,133.43
2019-03-10T03:43:59.387Z,149.87
2019-03-10T03:45:08.163Z,140.87
2019-03-10T03:46:16.342Z,132.67
2019-03-10T03:47:24.624Z,13.73
2019-03-10T03:48:32.949Z,70.57
2019-03-10T03:49:40.932Z,134.83
2019-03-10T03:50:49.029Z,142.73
2019-03-10T03:51:57.021Z,5.17
2019-03-10T03:53:05.014Z,1.80
2019-03-10T03:54:13.259Z,2.03
2019-03-10T03:55:21.539Z,10.73
2019-03-10T03:56:29.714Z,4.10
2019-03-10T03:57:38.120Z,14.10
2019-03-10T03:58:46.241Z,12.67
2019-03-10T03:59:54.109Z,4.77
2019-03-10T04:01:03.943Z,2.73
2019-03-10T04:02:13.668Z,5.37
2019-03-10T04:03:21.992Z,3.40
2019-03-10T04:04:30.598Z,3.60
2019-03-10T04:05:38.882Z,11.43
2019-03-10T04:06:47.192Z,12.13
2019-03-10T04:07:55.250Z,13.07
2019-03-10T04:09:04.919Z,3.47
2019-03-10T04:10:13.216Z,2.83
2019-03-10T04:11:21.199Z,4.60
2019-03-10T04:12:29.624Z,13.63
2019-03-10T04:13:38.030Z,51.27
2019-03-10T04:14:46.011Z,15.37
2019-03-10T04:15:55.170Z,22.20
2019-03-10T04:17:03.019Z,88.20
2019-03-10T04:18:11.447Z,95.10
2019-03-10T04:19:19.442Z,131.17
2019-03-10T04:20:28.177Z,92.20
2019-03-10T04:21:36.390Z,141.17
2019-03-10T04:22:44.562Z,152.77
2019-03-10T04:23:52.891Z,103.67
2019-03-10T04:25:01.176Z,202.83
2019-03-10T04:26:09.381Z,143.70
2019-03-10T04:27:17.377Z,169.47
2019-03-10T04:28:25.710Z,168.60
2019-03-10T04:29:34.084Z,157.03
2019-03-10T04:30:42.387Z,156.97
2019-03-10T04:31:50.686Z,142.03
2019-03-10T04:32:58.875Z,138.90
2019-03-10T04:34:08.175Z,141.57
2019-03-10T04:35:16.814Z,183.33
2019-03-10T04:36:26.289Z,164.80
2019-03-10T04:37:35.899Z,173.03
2019-03-10T04:38:44.285Z,221.20
2019-03-10T04:39:52.583Z,157.97
2019-03-10T04:41:00.880Z,134.37
2019-03-10T04:42:09.082Z,96.87
2019-03-10T04:43:17.077Z,91.03
2019-03-10T04:44:25.130Z,49.57
2019-03-10T04:45:33.379Z,14.40
2019-03-10T04:46:41.672Z,77.97
2019-03-10T04:47:49.524Z,124.13
2019-03-10T04:48:57.467Z,119.90
2019-03-10T04:50:07.712Z,135.33
2019-03-10T04:51:16.005Z,114.43
2019-03-10T04:52:24.083Z,104.93
2019-03-10T04:53:32.714Z,104.97
2019-03-10T04:54:59.358Z,130.67
2019-03-10T04:56:21.476Z,116.77
2019-03-10T04:57:29.793Z,121.23
2019-03-10T04:58:39.526Z,119.93
2019-03-10T04:59:47.924Z,147.60
2019-03-10T05:00:57.968Z,142.10
2019-03-10T05:02:06.458Z,143.37
2019-03-10T05:03:14.863Z,121.57
2019-03-10T05:04:22.879Z,108.30
2019-03-10T05:05:30.969Z,124.43
2019-03-10T05:06:39.072Z,128.50
2019-03-10T05:07:47.120Z,133.30
2019-03-10T05:08:55.447Z,99.73
2019-03-10T05:10:04.213Z,104.50
2019-03-10T05:11:12.366Z,102.87
2019-03-10T05:12:20.426Z,123.13
2019-03-10T05:13:29.087Z,58.93
2019-03-10T05:14:37.013Z,73.43
2019-03-10T05:15:45.256Z,141.40
2019-03-10T05:16:53.202Z,125.13
2019-03-10T05:18:01.327Z,93.23
2019-03-10T05:19:27.601Z,116.90
2019-03-10T05:20:35.723Z,41.20
2019-03-10T05:21:43.794Z,80.50
2019-03-10T05:22:51.964Z,70.93
2019-03-10T05:24:03.871Z,28.57
2019-03-10T05:25:16.393Z,62.43
2019-03-10T05:26:24.640Z,13.30
2019-03-10T05:27:33.069Z,27.13
2019-03-10T05:28:45.518Z,93.07
2019-03-10T05:29:53.586Z,81.63
2019-03-10T05:31:01.892Z,62.93
2019-03-10T05:32:09.800Z,72.50
2019-03-10T05:33:17.715Z,78.00
2019-03-10T05:34:25.850Z,106.20
2019-03-10T05:35:34.048Z,163.63
2019-03-10T05:36:42.279Z,177.63
2019-03-10T05:37:50.278Z,180.23
2019-03-10T05:38:58.058Z,167.50
2019-03-10T05:40:08.551Z,152.37
2019-03-10T05:41:17.049Z,150.07
2019-03-10T05:42:25.177Z,154.10
2019-03-10T05:43:33.289Z,145.67
2019-03-10T05:44:41.367Z,153.57
2019-03-10T05:45:49.374Z,159.33
2019-03-10T05:46:57.665Z,152.97
2019-03-10T05:48:06.070Z,166.20
2019-03-10T05:49:14.256Z,152.33
2019-03-10T05:50:22.340Z,155.97
2019-03-10T05:51:30.591Z,149.13
2019-03-10T05:52:38.668Z,162.00
2019-03-10T05:53:46.860Z,182.87
2019-03-10T05:54:54.879Z,178.27
2019-03-10T05:56:02.988Z,161.33
2019-03-10T05:57:11.253Z,161.97
2019-03-10T05:58:19.433Z,163.10
2019-03-10T05:59:27.528Z,159.50
2019-03-10T06:00:42.566Z,160.13
2019-03-10T06:01:45.704Z,176.87
2019-03-10T06:02:53.764Z,175.70
2019-03-10T06:04:01.785Z,163.97
2019-03-10T06:05:10.272Z,160.07
2019-03-10T06:06:18.485Z,162.13
2019-03-10T06:07:26.581Z,159.00
2019-03-10T06:08:34.366Z,159.83
2019-03-10T06:09:42.379Z,163.93
2019-03-10T06:10:50.660Z,176.13
2019-03-10T06:11:58.734Z,169.37
2019-03-10T06:13:06.853Z,154.17
2019-03-10T06:14:14.689Z,151.63
2019-03-10T06:15:22.923Z,159.53
2019-03-10T06:16:30.894Z,154.73
2019-03-10T06:17:39.178Z,150.93
2019-03-10T06:18:47.151Z,160.93
2019-03-10T06:19:55.128Z,171.40
2019-03-10T06:21:03.032Z,158.30
2019-03-10T06:22:11.093Z,150.33
2019-03-10T06:23:19.234Z,154.77
2019-03-10T06:24:27.258Z,150.37
2019-03-10T06:25:35.437Z,167.70
2019-03-10T06:26:45.875Z,171.57
2019-03-10T06:27:54.122Z,174.07
2019-03-10T06:29:02.403Z,162.57
2019-03-10T06:30:12.628Z,150.03
2019-03-10T06:31:20.799Z,164.20
2019-03-10T06:32:29.215Z,158.60
2019-03-10T06:33:37.307Z,157.23
2019-03-10T06:34:45.288Z,164.03
2019-03-10T06:35:53.439Z,167.93
2019-03-10T06:37:01.436Z,157.70
2019-03-10T06:38:09.572Z,139.33
2019-03-10T06:39:17.363Z,144.50
2019-03-10T06:40:32.180Z,151.80
2019-03-10T06:41:35.745Z,150.33
2019-03-10T06:42:43.924Z,148.00
2019-03-10T06:43:52.049Z,172.43
2019-03-10T06:45:00.297Z,178.77
2019-03-10T06:46:08.349Z,163.80
2019-03-10T06:47:16.523Z,160.00
2019-03-10T06:48:24.945Z,159.23
2019-03-10T06:49:33.241Z,157.20
2019-03-10T06:50:41.579Z,163.07
2019-03-10T06:51:49.793Z,168.57
2019-03-10T06:52:57.955Z,168.63
2019-03-10T06:54:06.171Z,156.23
2019-03-10T06:55:14.372Z,105.90
2019-03-10T06:56:22.408Z,5.27
2019-03-10T06:57:30.978Z,12.80
2019-03-10T06:58:39.283Z,56.37
2019-03-10T06:59:49.823Z,76.17
2019-03-10T07:00:57.491Z,30.87
2019-03-10T07:02:05.715Z,88.77
2019-03-10T07:03:13.894Z,119.90
2019-03-10T07:04:22.068Z,128.13
2019-03-10T07:05:30.821Z,87.93
2019-03-10T07:06:38.803Z,9.20
2019-03-10T07:07:46.909Z,5.60
2019-03-10T07:08:55.092Z,11.63
2019-03-10T07:10:03.498Z,9.87
2019-03-10T07:11:11.626Z,3.57
2019-03-10T07:12:19.852Z,2.47
2019-03-10T07:13:28.402Z,55.87
2019-03-10T07:14:36.395Z,83.23
2019-03-10T07:15:44.695Z,129.67
2019-03-10T07:16:52.862Z,138.67
2019-03-10T07:18:00.984Z,163.57
2019-03-10T07:19:08.988Z,143.23
2019-03-10T07:20:22.993Z,155.50
2019-03-10T07:21:31.124Z,142.77
2019-03-10T07:22:39.275Z,103.90
2019-03-10T07:23:47.703Z,109.87
2019-03-10T07:24:56.125Z,102.93
2019-03-10T07:26:07.277Z,125.30
2019-03-10T07:27:15.695Z,72.20
2019-03-10T07:28:28.402Z,91.70
2019-03-10T07:29:41.374Z,147.07
2019-03-10T07:30:54.067Z,164.77
2019-03-10T07:32:04.183Z,168.37
2019-03-10T07:33:23.124Z,152.87
2019-03-10T07:34:42.028Z,154.03
2019-03-10T07:35:53.119Z,159.43
2019-03-10T07:37:18.997Z,169.90
2019-03-10T07:38:33.184Z,157.63
2019-03-10T07:39:45.607Z,157.40
2019-03-10T07:40:55.849Z,130.27
2019-03-10T07:42:14.837Z,137.27
2019-03-10T07:43:31.026Z,132.87
2019-03-10T07:44:50.121Z,42.37
2019-03-10T07:46:00.060Z,28.17
2019-03-10T07:47:13.060Z,84.03
2019-03-10T07:48:32.382Z,35.27
2019-03-10T07:49:42.183Z,48.40
2019-03-10T07:50:54.213Z,12.27
2019-03-10T07:52:20.288Z,22.67
2019-03-10T07:53:24.860Z,22.90
2019-03-10T07:54:32.935Z,67.07
2019-03-10T07:55:51.838Z,111.53
2019-03-10T07:57:17.657Z,164.50
2019-03-10T07:58:27.484Z,120.27
2019-03-10T07:59:53.917Z,108.30
2019-03-10T08:01:12.751Z,28.80
2019-03-10T08:02:38.454Z,5.23
2019-03-10T08:03:50.666Z,84.63
2019-03-10T08:05:09.463Z,114.70
2019-03-10T08:06:18.890Z,89.90
2019-03-10T08:07:29.424Z,70.47
2019-03-10T08:08:42.018Z,73.00
2019-03-10T08:09:51.615Z,118.47
2019-03-10T08:11:07.204Z,149.53
2019-03-10T08:12:16.844Z,136.90
2019-03-10T08:13:29.151Z,105.70
2019-03-10T08:14:54.213Z,65.70
2019-03-10T08:16:16.703Z,19.90
2019-03-10T08:17:26.219Z,104.70
2019-03-10T08:18:35.879Z,83.13
2019-03-10T08:20:01.424Z,135.20
2019-03-10T08:21:09.162Z,145.43
2019-03-10T08:22:19.832Z,70.50
2019-03-10T08:23:45.528Z,70.60
2019-03-10T08:25:04.185Z,122.17
2019-03-10T08:26:13.959Z,118.27
2019-03-10T08:27:32.704Z,91.47
2019-03-10T08:28:42.144Z,115.37
2019-03-10T08:29:51.665Z,135.70
2019-03-10T08:31:04.200Z,78.93
2019-03-10T08:32:22.519Z,135.60
2019-03-10T08:33:41.250Z,151.60
2019-03-10T08:35:07.260Z,165.87
2019-03-10T08:36:20.013Z,155.80
2019-03-10T08:37:33.941Z,133.80
2019-03-10T08:38:52.598Z,47.37
2019-03-10T08:40:02.181Z,55.27
2019-03-10T08:41:27.786Z,116.90
2019-03-10T08:42:40.556Z,128.23
2019-03-10T08:43:52.797Z,80.40
2019-03-10T08:45:08.272Z,28.87
2019-03-10T08:46:21.205Z,48.67
2019-03-10T08:47:31.799Z,9.60
2019-03-10T08:48:50.506Z,1.90
2019-03-10T08:50:00.356Z,9.10
2019-03-10T08:51:10.183Z,47.97
2019-03-10T08:52:19.811Z,13.00
2019-03-10T08:53:46.156Z,35.83
2019-03-10T08:55:04.253Z,3.70
2019-03-10T08:56:14.921Z,75.10
2019-03-10T08:57:25.638Z,11.60
2019-03-10T08:58:40.920Z,4.67
2019-03-10T08:59:50.695Z,62.90
2019-03-10T09:01:16.647Z,20.83
2019-03-10T09:02:42.993Z,30.33
2019-03-10T09:03:59.898Z,46.70
2019-03-10T09:05:10.262Z,24.20
2019-03-10T09:06:20.551Z,150.07
2019-03-10T09:07:37.837Z,73.33
2019-03-10T09:09:04.016Z,35.80
2019-03-10T09:10:32.406Z,10.13
2019-03-10T09:11:58.770Z,4.67
2019-03-10T09:13:08.593Z,34.90
2019-03-10T09:14:34.034Z,16.60
2019-03-10T09:15:42.155Z,1.60
2019-03-10T09:16:59.217Z,54.13
2019-03-10T09:18:08.937Z,21.80
2019-03-10T09:19:18.573Z,17.30
2019-03-10T09:20:31.381Z,2.43
2019-03-10T09:21:44.712Z,2.70
2019-03-10T09:23:10.635Z,3.30
2019-03-10T09:24:32.134Z,3.37
2019-03-10T09:25:58.604Z,2.93
2019-03-10T09:27:24.889Z,11.23
2019-03-10T09:28:55.504Z,3.27
2019-03-10T09:30:11.988Z,11.13
2019-03-10T09:31:21.673Z,10.47
2019-03-10T09:32:40.483Z,6.37
2019-03-10T09:33:53.051Z,6.43
2019-03-10T09:35:05.375Z,11.00
2019-03-10T09:36:23.609Z,12.37
2019-03-10T09:37:42.269Z,5.07
2019-03-10T09:38:58.153Z,6.70
2019-03-10T09:40:22.007Z,11.07
2019-03-10T09:41:47.805Z,2.77
2019-03-10T09:43:13.765Z,2.60
2019-03-10T09:44:28.887Z,2.10
2019-03-10T09:45:36.610Z,2.60
2019-03-10T09:47:04.240Z,2.20
2019-03-10T09:48:25.916Z,11.93
2019-03-10T09:49:36.167Z,1.57
2019-03-10T09:50:48.439Z,2.53
2019-03-10T09:51:58.935Z,2.17
2019-03-10T09:53:24.742Z,11.73
2019-03-10T09:54:34.258Z,2.00
2019-03-10T09:56:01.941Z,1.97
2019-03-10T09:57:14.413Z,10.60
2019-03-10T09:58:23.926Z,3.40
2019-03-10T09:59:33.628Z,41.07
2019-03-10T10:00:59.313Z,12.87
2019-03-10T10:02:18.118Z,11.67
2019-03-10T10:03:27.551Z,34.70
2019-03-10T10:04:36.910Z,2.70
2019-03-10T10:06:02.650Z,2.90
2019-03-10T10:07:12.205Z,71.83
2019-03-10T10:08:38.188Z,3.97
2019-03-10T10:10:02.705Z,3.83
2019-03-10T10:11:28.565Z,67.30
2019-03-10T10:12:44.236Z,20.83
2019-03-10T10:14:06.395Z,7.60
2019-03-10T10:15:14.302Z,43.60
2019-03-10T10:16:29.825Z,3.03
2019-03-10T10:17:39.324Z,2.57
2019-03-10T10:18:54.639Z,4.63
2019-03-10T10:20:07.116Z,6.00
2019-03-10T10:21:17.011Z,10.73
2019-03-10T10:22:29.061Z,5.60
2019-03-10T10:23:42.722Z,2.73
2019-03-10T10:24:52.437Z,3.57
2019-03-10T10:26:05.012Z,19.67
2019-03-10T10:27:17.398Z,13.90
2019-03-10T10:28:43.429Z,3.77
2019-03-10T10:29:57.021Z,1.70
2019-03-10T10:31:15.892Z,7.63
2019-03-10T10:32:34.346Z,3.20
2019-03-10T10:33:59.521Z,1.50
2019-03-10T10:35:17.863Z,10.73
2019-03-10T10:36:27.465Z,2.37
2019-03-10T10:37:39.867Z,2.40
2019-03-10T10:38:49.445Z,1.97
2019-03-10T10:39:58.970Z,5.03
2019-03-10T10:41:24.770Z,9.17
2019-03-10T10:42:38.687Z,2.80
2019-03-10T10:43:48.328Z,2.30
2019-03-10T10:45:14.467Z,2.00
2019-03-10T10:46:42.248Z,4.63
2019-03-10T10:48:06.887Z,2.73
2019-03-10T10:49:16.364Z,10.53
2019-03-10T10:50:44.513Z,5.33
2019-03-10T10:52:09.935Z,3.73
2019-03-10T10:53:37.746Z,10.90
2019-03-10T10:55:02.388Z,2.23
2019-03-10T10:56:30.522Z,10.77
2019-03-10T10:57:39.947Z,2.40
2019-03-10T10:58:49.767Z,2.67
2019-03-10T10:59:59.340Z,1.73
2019-03-10T11:01:27.147Z,11.10
2019-03-10T11:02:42.671Z,3.70
2019-03-10T11:04:04.421Z,2.73
2019-03-10T11:05:23.441Z,12.33
2019-03-10T11:06:33.058Z,2.67
2019-03-10T11:08:00.728Z,1.93
2019-03-10T11:09:20.490Z,9.27
2019-03-10T11:10:42.175Z,2.83
2019-03-10T11:11:51.816Z,3.97
2019-03-10T11:12:59.677Z,5.97
2019-03-10T11:14:15.363Z,7.47
2019-03-10T11:15:24.915Z,7.07
2019-03-10T11:16:37.291Z,1.70
2019-03-10T11:17:47.046Z,1.33
2019-03-10T11:18:54.738Z,1.97
2019-03-10T11:20:02.334Z,2.20
2019-03-10T11:21:20.856Z,10.57
2019-03-10T11:22:47.013Z,2.20
2019-03-10T11:25:13.535Z,9.43
2019-03-10T11:26:26.420Z,8.57
2019-03-10T11:27:38.870Z,3.67
2019-03-10T11:29:03.584Z,3.53
2019-03-10T11:30:12.837Z,6.70
2019-03-10T11:31:28.629Z,9.27
2019-03-10T11:32:51.481Z,4.10
2019-03-10T11:34:06.993Z,2.10
2019-03-10T11:35:33.054Z,11.53
2019-03-10T11:36:40.863Z,2.63
2019-03-10T11:37:53.551Z,5.23
2019-03-10T11:39:03.038Z,2.73
2019-03-10T11:40:29.523Z,11.87
2019-03-10T11:41:55.430Z,4.87
2019-03-10T11:43:14.163Z,3.60
2019-03-10T11:44:40.027Z,5.60
2019-03-10T11:45:50.974Z,3.93
2019-03-10T11:47:07.856Z,3.37
2019-03-10T11:48:17.499Z,3.30
2019-03-10T11:49:42.486Z,8.63
2019-03-10T11:50:55.092Z,5.87
2019-03-10T11:52:07.517Z,3.87
2019-03-10T11:53:22.640Z,10.60
2019-03-10T11:54:36.129Z,4.97
2019-03-10T11:55:44.053Z,3.60
2019-03-10T11:57:09.961Z,7.50
2019-03-10T11:58:39.204Z,13.57
2019-03-10T11:59:58.215Z,2.87
2019-03-10T12:01:07.896Z,3.10
2019-03-10T12:02:17.721Z,12.00
2019-03-10T12:03:39.310Z,12.37
2019-03-10T12:04:55.068Z,2.90
2019-03-10T12:06:10.866Z,3.03
2019-03-10T12:07:37.174Z,10.50
2019-03-10T12:08:54.067Z,2.63
2019-03-10T12:10:02.733Z,2.87
2019-03-10T12:11:10.771Z,4.43
2019-03-10T12:12:19.041Z,11.30
2019-03-10T12:13:27.194Z,9.63
2019-03-10T12:14:35.060Z,2.43
2019-03-10T12:15:43.277Z,2.60
2019-03-10T12:16:51.280Z,2.97
2019-03-10T12:17:59.550Z,3.03
2019-03-10T12:19:07.704Z,3.37
2019-03-10T12:20:16.002Z,10.53
2019-03-10T12:21:24.265Z,9.93
2019-03-10T12:22:32.372Z,2.20
2019-03-10T12:23:40.282Z,3.07
2019-03-10T12:24:48.289Z,4.83
2019-03-10T12:25:56.385Z,5.83
2019-03-10T12:27:04.420Z,4.97
2019-03-10T12:28:12.462Z,5.07
2019-03-10T12:29:20.206Z,9.33
2019-03-10T12:30:28.239Z,11.40
2019-03-10T12:31:36.203Z,3.73
2019-03-10T12:32:44.128Z,3.83
2019-03-10T12:33:52.508Z,2.90
2019-03-10T12:35:00.929Z,2.67
2019-03-10T12:36:09.056Z,3.97
2019-03-10T12:37:17.211Z,8.83
2019-03-10T12:38:25.028Z,9.87
2019-03-10T12:39:33.146Z,4.87
2019-03-10T12:40:41.193Z,2.33
2019-03-10T12:41:57.845Z,2.00
2019-03-10T12:42:59.055Z,2.43
2019-03-10T12:44:06.966Z,3.13
2019-03-10T12:45:15.183Z,6.30
2019-03-10T12:46:23.092Z,9.23
2019-03-10T12:47:31.107Z,9.23
2019-03-10T12:48:38.897Z,2.60
2019-03-10T12:49:46.623Z,3.53
2019-03-10T12:50:54.507Z,2.90
2019-03-10T12:52:02.471Z,2.67
2019-03-10T12:53:10.567Z,2.20
2019-03-10T12:54:18.560Z,9.60
2019-03-10T12:55:26.679Z,8.90
2019-03-10T12:56:34.490Z,3.47
2019-03-10T12:57:42.446Z,5.87
2019-03-10T12:58:50.512Z,3.30
2019-03-10T12:59:58.658Z,3.30
2019-03-10T13:01:07.134Z,3.07
2019-03-10T13:02:16.183Z,7.03
2019-03-10T13:03:24.387Z,10.37
2019-03-10T13:04:32.303Z,9.63
2019-03-10T13:05:40.292Z,2.17
2019-03-10T13:06:48.316Z,2.27
2019-03-10T13:07:56.473Z,2.33
2019-03-10T13:09:05.808Z,3.10
2019-03-10T13:10:14.474Z,4.13
2019-03-10T13:11:22.610Z,8.87
2019-03-10T13:12:31.048Z,11.10
2019-03-10T13:13:39.001Z,2.07
2019-03-10T13:14:46.689Z,2.40
2019-03-10T13:15:54.457Z,3.90
2019-03-10T13:17:02.781Z,5.77
2019-03-10T13:18:10.889Z,2.87
2019-03-10T13:19:19.050Z,11.30
2019-03-10T13:20:28.560Z,13.33
2019-03-10T13:21:36.832Z,3.57
2019-03-10T13:22:44.839Z,2.37
2019-03-10T13:23:52.848Z,2.50
2019-03-10T13:25:00.795Z,2.37
2019-03-10T13:26:10.330Z,3.90
2019-03-10T13:27:18.388Z,7.83
2019-03-10T13:28:26.170Z,10.43
2019-03-10T13:29:34.030Z,7.37
2019-03-10T13:30:42.543Z,4.10
2019-03-10T13:31:50.408Z,3.30
2019-03-10T13:32:58.797Z,3.10
2019-03-10T13:34:07.211Z,5.73
2019-03-10T13:35:15.501Z,5.83
2019-03-10T13:36:23.957Z,13.40
2019-03-10T13:37:32.004Z,11.10
2019-03-10T13:38:39.890Z,2.70
2019-03-10T13:39:47.685Z,2.63
2019-03-10T13:40:55.977Z,3.53
2019-03-10T13:42:04.048Z,3.73
2019-03-10T13:43:12.522Z,3.30
2019-03-10T13:44:20.850Z,12.27
2019-03-10T13:45:28.984Z,11.10
2019-03-10T13:46:37.096Z,2.90
2019-03-10T13:47:45.143Z,2.43
2019-03-10T13:48:53.174Z,1.90
2019-03-10T13:50:01.007Z,2.27
2019-03-10T13:51:09.385Z,2.47
2019-03-10T13:52:17.767Z,3.00
2019-03-10T13:53:25.814Z,10.03
2019-03-10T13:54:33.564Z,8.83
2019-03-10T13:55:41.525Z,1.93
2019-03-10T13:56:49.597Z,2.03
2019-03-10T13:57:57.548Z,3.10
2019-03-10T13:59:05.608Z,4.30
2019-03-10T14:00:27.226Z,2.30
2019-03-10T14:01:35.061Z,6.20
2019-03-10T14:02:42.957Z,2.27
2019-03-10T14:03:50.948Z,2.43
2019-03-10T14:04:59.048Z,2.77
2019-03-10T14:06:07.088Z,3.17
2019-03-10T14:07:15.319Z,1.80
2019-03-10T14:08:23.191Z,8.70
2019-03-10T14:09:31.174Z,9.00
2019-03-10T14:10:39.512Z,2.30
2019-03-10T14:11:47.417Z,2.07
2019-03-10T14:12:55.443Z,1.60
2019-03-10T14:14:03.638Z,3.00
2019-03-10T14:15:17.021Z,3.07
2019-03-10T14:16:24.998Z,8.23
2019-03-10T14:17:33.108Z,9.83
2019-03-10T14:18:41.202Z,1.67
2019-03-10T14:19:49.100Z,2.30
2019-03-10T14:20:57.260Z,5.53
2019-03-10T14:22:05.385Z,4.97
2019-03-10T14:23:13.414Z,3.80
2019-03-10T14:24:21.266Z,7.50
2019-03-10T14:25:29.300Z,9.57
2019-03-10T14:26:37.053Z,8.53
2019-03-10T14:27:45.227Z,3.87
2019-03-10T14:28:53.220Z,4.73
2019-03-10T14:30:01.249Z,5.47
2019-03-10T14:31:09.258Z,1.37
2019-03-10T14:32:17.227Z,2.03
2019-03-10T14:33:25.286Z,6.20
2019-03-10T14:34:33.175Z,6.50
2019-03-10T14:35:41.140Z,1.63
2019-03-10T14:36:48.923Z,2.07
2019-03-10T14:37:56.671Z,5.20
2019-03-10T14:39:06.124Z,3.10
2019-03-10T14:40:20.352Z,1.93
2019-03-10T14:41:28.464Z,6.10
2019-03-10T14:42:36.353Z,5.37
2019-03-10T14:43:44.359Z,2.47
2019-03-10T14:44:52.331Z,0.93
2019-03-10T14:46:00.164Z,1.17
2019-03-10T14:47:07.852Z,1.33
2019-03-10T14:48:16.027Z,1.40
2019-03-10T14:49:24.820Z,5.37
2019-03-10T14:50:32.774Z,6.23
2019-03-10T14:51:40.834Z,2.23
2019-03-10T14:52:49.027Z,2.03
2019-03-10T14:53:56.787Z,1.63
2019-03-10T14:55:07.190Z,1.37
2019-03-10T14:56:15.266Z,1.37
2019-03-10T14:57:23.038Z,3.93
2019-03-10T14:58:30.936Z,5.50
2019-03-10T14:59:40.364Z,3.80
2019-03-10T15:00:48.135Z,1.83
2019-03-10T15:01:55.997Z,1.97
2019-03-10T15:03:03.723Z,1.50
2019-03-10T15:04:11.821Z,2.00
2019-03-10T15:05:19.859Z,3.17
2019-03-10T15:06:27.810Z,6.30
2019-03-10T15:07:35.717Z,7.27
2019-03-10T15:08:46.208Z,1.30
2019-03-10T15:09:53.350Z,1.83
2019-03-10T15:11:01.329Z,1.93
2019-03-10T15:12:09.456Z,2.43
2019-03-10T15:13:17.763Z,3.53
2019-03-10T15:14:25.824Z,5.53
2019-03-10T15:15:33.829Z,4.37
2019-03-10T15:16:42.089Z,2.63
2019-03-10T15:17:50.308Z,2.30
2019-03-10T15:18:58.188Z,3.57
2019-03-10T15:20:09.731Z,2.03
2019-03-10T15:21:17.676Z,1.23
2019-03-10T15:22:25.378Z,4.40